Melrose, Minnesota
Current Conditions -  °F | °C
As of 11:13 PM on Saturday 25 Oct 2014 (Local Time) from KD39 Reporting Station
Clear Clear  
Wind Chill:   Ceiling: Unl
Heat Index:   Visibility: 10mi
Dew Point: -2°   Wind: 0mph
Humidity: 73%   Direction: NA
Pressure: 30.06"   Gusts: NA
Location:  45.67°N, 94.81°W
Report Text: KD39 260413Z AUTO 00000KT 10SM CLR 02/M02 A3006 RMK AO2 T00191024
Loading
Personal Weather Stations






























Interactive Weather Map
Tropical Storm Tracking
New forecast layout! Learn more

10-Day Weather Forecast

Advertisements
Track Severe Weather on mobile